Felts Field
KSFF : now visible

Airfield :











YOU CAN JOIN US ON...

 
LOGIN :

Register | Disclaimer

   EN    FR    IT 

 









Legend :    VFR   Marginal VFR   IFR   Intensive IFR   Very Intensive IFR
Visi :
Ceiling :
>= 8 km
>= 3000ft
5 to 8 km
1000 to 3000 ft
1500m to 5 km
500 to 1000 ft
800 to 1500m
200 to 500 ft
< 800m
< 200 ft
Symbols :   Thunderstorms  Fog  Heavy snow  Heavy precipitations  Wind > 20 kt






- Airport Elevation : 1953 ft


KSFF - Felts Field

CURRENT METAR :
  • 131653Z 00000KT 8SM OVC011 03/01 A3022 RMK AO2 SLP247 T00330011

EXPIRED METARs :
  • 131553Z 00000KT 8SM FEW009 OVC013 03/01 A3022 RMK AO2 SLP247 T00280006
  • 131534Z 00000KT 8SM BKN008 OVC012 03/01 A3021 RMK AO2 CIG 008V012 T00280006
  • 131453Z 00000KT 8SM OVC010 03/01 A3020 RMK AO2 CIG 006V012 SLP240 T00280006 53002
  • 131434Z 00000KT 8SM BKN008 OVC013 03/01 A3020 RMK AO2 CIG 006V010 T00280006
  • 131425Z 00000KT 7SM SCT009 OVC013 03/01 A3019 RMK AO2 T00280006

TAF KSFF
Valid from the 13 at 15:00 until the 14 at 12:00 UTC


131504Z 1315/1412 00000KT P6SM OVC010
FM131900 00000KT P6SM BKN015
FM140100 00000KT P6SM SCT020 BKN250
FM140600 00000KT P6SM OVC015



MET'MAP, your aeronautical weather chart ! - Copyright ORBIFLY December 2007 - Disclaimer

ORBIFLY MET'MAP TEAM :

Programming & Development : Alexandra Zaïnal
Concept & Development : Baudouin d'Aumeries
Co-Development & Prog : Marc-Olivier Méhu
Technical & hardware support : Manuel Goepfert

Contact : metmap@orbifly.com




SOURCES & CREDITS :

   NOAA       Earth
Advisory